sensor_id;sensor_type;location;lat;lon;timestamp;pressure;altitude;pressure_sealevel;temperature;humidity
64388;BME280;50709;52.648;4.764;2023-09-19T00:01:40;100580.00;;;20.50;52.93
64388;BME280;50709;52.648;4.764;2023-09-19T00:04:09;100581.41;;;20.80;53.96
64388;BME280;50709;52.648;4.764;2023-09-19T00:06:36;100580.31;;;20.84;54.61
64388;BME280;50709;52.648;4.764;2023-09-19T00:09:01;100574.13;;;20.83;53.27
64388;BME280;50709;52.648;4.764;2023-09-19T00:11:28;100592.94;;;20.79;53.41
64388;BME280;50709;52.648;4.764;2023-09-19T00:13:54;100593.53;;;20.86;53.70
64388;BME280;50709;52.648;4.764;2023-09-19T00:16:20;100575.00;;;20.63;52.60
64388;BME280;50709;52.648;4.764;2023-09-19T00:18:46;100599.09;;;20.59;53.71
64388;BME280;50709;52.648;4.764;2023-09-19T00:21:11;100596.09;;;20.87;53.84
64388;BME280;50709;52.648;4.764;2023-09-19T00:23:37;100589.31;;;20.59;53.05
64388;BME280;50709;52.648;4.764;2023-09-19T00:26:03;100613.56;;;20.72;53.62
64388;BME280;50709;52.648;4.764;2023-09-19T00:28:29;100610.53;;;20.59;53.78
64388;BME280;50709;52.648;4.764;2023-09-19T00:30:55;100613.25;;;20.80;54.01
64388;BME280;50709;52.648;4.764;2023-09-19T00:33:21;100611.00;;;20.71;52.33
64388;BME280;50709;52.648;4.764;2023-09-19T00:35:57;100612.50;;;20.76;53.71
64388;BME280;50709;52.648;4.764;2023-09-19T00:38:23;100615.16;;;20.56;53.11
64388;BME280;50709;52.648;4.764;2023-09-19T00:40:53;100582.22;;;20.39;51.97
64388;BME280;50709;52.648;4.764;2023-09-19T00:43:19;100584.94;;;20.38;53.26
64388;BME280;50709;52.648;4.764;2023-09-19T00:45:47;100602.00;;;20.53;50.89
64388;BME280;50709;52.648;4.764;2023-09-19T00:48:16;100597.50;;;20.34;53.52
64388;BME280;50709;52.648;4.764;2023-09-19T00:50:45;100604.63;;;20.53;52.61
64388;BME280;50709;52.648;4.764;2023-09-19T00:53:32;100587.03;;;20.52;52.50
64388;BME280;50709;52.648;4.764;2023-09-19T00:55:59;100600.81;;;20.60;53.38
64388;BME280;50709;52.648;4.764;2023-09-19T00:58:25;100569.31;;;20.31;53.63
64388;BME280;50709;52.648;4.764;2023-09-19T01:00:52;100619.72;;;20.52;53.75
64388;BME280;50709;52.648;4.764;2023-09-19T01:03:18;100609.03;;;20.54;52.41
64388;BME280;50709;52.648;4.764;2023-09-19T01:05:44;100613.94;;;20.42;50.35
64388;BME280;50709;52.648;4.764;2023-09-19T01:08:09;100603.72;;;20.54;51.44
64388;BME280;50709;52.648;4.764;2023-09-19T01:10:49;100618.47;;;20.81;53.03
64388;BME280;50709;52.648;4.764;2023-09-19T01:21:57;100617.13;;;20.50;52.96
64388;BME280;50709;52.648;4.764;2023-09-19T01:24:38;100610.94;;;20.50;53.24
64388;BME280;50709;52.648;4.764;2023-09-19T01:27:17;100604.25;;;20.41;53.76
64388;BME280;50709;52.648;4.764;2023-09-19T01:29:49;100615.19;;;20.33;54.25
64388;BME280;50709;52.648;4.764;2023-09-19T01:32:19;100617.84;;;20.33;52.92
64388;BME280;50709;52.648;4.764;2023-09-19T01:34:58;100628.19;;;20.40;52.97
64388;BME280;50709;52.648;4.764;2023-09-19T01:37:29;100630.91;;;20.59;53.24
64388;BME280;50709;52.648;4.764;2023-09-19T01:40:05;100621.44;;;20.53;52.75
64388;BME280;50709;52.648;4.764;2023-09-19T01:43:09;100614.34;;;20.54;53.24
64388;BME280;50709;52.648;4.764;2023-09-19T01:48:41;100609.28;;;20.27;52.72
64388;BME280;50709;52.648;4.764;2023-09-19T01:51:09;100632.75;;;20.57;52.05
64388;BME280;50709;52.648;4.764;2023-09-19T01:56:08;100629.69;;;20.25;51.15
64388;BME280;50709;52.648;4.764;2023-09-19T01:58:46;100638.06;;;20.36;53.34
64388;BME280;50709;52.648;4.764;2023-09-19T02:01:20;100627.38;;;20.38;52.64
64388;BME280;50709;52.648;4.764;2023-09-19T02:03:47;100638.34;;;20.50;52.61
64388;BME280;50709;52.648;4.764;2023-09-19T02:06:17;100605.00;;;20.45;52.98
64388;BME280;50709;52.648;4.764;2023-09-19T02:08:45;100630.19;;;20.34;52.19
64388;BME280;50709;52.648;4.764;2023-09-19T02:11:32;100617.19;;;20.49;52.42
64388;BME280;50709;52.648;4.764;2023-09-19T02:13:57;100625.53;;;20.60;53.15
64388;BME280;50709;52.648;4.764;2023-09-19T02:16:24;100625.47;;;20.21;52.29
64388;BME280;50709;52.648;4.764;2023-09-19T02:18:50;100613.81;;;20.45;52.92
64388;BME280;50709;52.648;4.764;2023-09-19T02:21:16;100600.75;;;19.98;52.59
64388;BME280;50709;52.648;4.764;2023-09-19T02:23:43;100636.16;;;20.40;52.73
64388;BME280;50709;52.648;4.764;2023-09-19T02:26:09;100630.59;;;20.03;54.33
64388;BME280;50709;52.648;4.764;2023-09-19T02:28:34;100644.25;;;20.37;53.06
64388;BME280;50709;52.648;4.764;2023-09-19T02:31:01;100640.00;;;20.53;53.14
64388;BME280;50709;52.648;4.764;2023-09-19T02:33:26;100645.84;;;20.41;53.23
64388;BME280;50709;52.648;4.764;2023-09-19T02:35:58;100644.25;;;20.57;52.08
64388;BME280;50709;52.648;4.764;2023-09-19T02:38:25;100640.63;;;20.80;53.37
64388;BME280;50709;52.648;4.764;2023-09-19T02:40:52;100644.97;;;20.61;53.31
64388;BME280;50709;52.648;4.764;2023-09-19T02:43:17;100639.78;;;20.58;53.39
64388;BME280;50709;52.648;4.764;2023-09-19T02:45:45;100644.56;;;20.29;54.21
64388;BME280;50709;52.648;4.764;2023-09-19T02:48:11;100635.13;;;20.22;54.44
64388;BME280;50709;52.648;4.764;2023-09-19T02:50:37;100625.69;;;20.14;55.66
64388;BME280;50709;52.648;4.764;2023-09-19T02:53:03;100623.41;;;20.27;55.67
64388;BME280;50709;52.648;4.764;2023-09-19T02:55:29;100625.47;;;20.41;56.40
64388;BME280;50709;52.648;4.764;2023-09-19T02:58:15;100591.16;;;20.16;55.64
64388;BME280;50709;52.648;4.764;2023-09-19T03:00:41;100612.81;;;20.05;56.32
64388;BME280;50709;52.648;4.764;2023-09-19T03:03:07;100612.28;;;19.97;56.29
64388;BME280;50709;52.648;4.764;2023-09-19T03:05:34;100621.81;;;20.01;56.89
64388;BME280;50709;52.648;4.764;2023-09-19T03:07:59;100630.47;;;20.06;56.48
64388;BME280;50709;52.648;4.764;2023-09-19T03:10:28;100634.13;;;20.24;55.17
64388;BME280;50709;52.648;4.764;2023-09-19T03:12:55;100637.34;;;20.10;55.69
64388;BME280;50709;52.648;4.764;2023-09-19T03:15:20;100624.47;;;20.01;56.87
64388;BME280;50709;52.648;4.764;2023-09-19T03:17:47;100624.91;;;20.12;55.82
64388;BME280;50709;52.648;4.764;2023-09-19T03:20:14;100637.66;;;20.03;56.85
64388;BME280;50709;52.648;4.764;2023-09-19T03:22:42;100638.47;;;20.05;56.54
64388;BME280;50709;52.648;4.764;2023-09-19T03:25:08;100603.56;;;19.93;55.88
64388;BME280;50709;52.648;4.764;2023-09-19T03:27:34;100627.72;;;20.08;55.84
64388;BME280;50709;52.648;4.764;2023-09-19T03:30:00;100632.41;;;20.23;54.45
64388;BME280;50709;52.648;4.764;2023-09-19T03:32:26;100634.56;;;20.13;54.65
64388;BME280;50709;52.648;4.764;2023-09-19T03:34:51;100635.38;;;19.93;55.25
64388;BME280;50709;52.648;4.764;2023-09-19T03:37:17;100630.59;;;20.03;55.64
64388;BME280;50709;52.648;4.764;2023-09-19T03:39:43;100642.44;;;20.15;55.73
64388;BME280;50709;52.648;4.764;2023-09-19T03:42:08;100647.47;;;20.00;54.17
64388;BME280;50709;52.648;4.764;2023-09-19T03:44:34;100651.34;;;19.92;55.27
64388;BME280;50709;52.648;4.764;2023-09-19T03:46:59;100661.22;;;20.10;55.73
64388;BME280;50709;52.648;4.764;2023-09-19T03:49:25;100674.66;;;20.06;53.85
64388;BME280;50709;52.648;4.764;2023-09-19T03:51:50;100657.03;;;20.05;55.13
64388;BME280;50709;52.648;4.764;2023-09-19T03:54:16;100666.53;;;19.88;54.56
64388;BME280;50709;52.648;4.764;2023-09-19T03:56:42;100679.78;;;20.10;53.78
64388;BME280;50709;52.648;4.764;2023-09-19T03:59:09;100676.19;;;20.11;55.04
64388;BME280;50709;52.648;4.764;2023-09-19T04:01:35;100679.28;;;20.00;54.07
64388;BME280;50709;52.648;4.764;2023-09-19T04:04:00;100685.16;;;19.85;53.82
64388;BME280;50709;52.648;4.764;2023-09-19T04:06:36;100694.56;;;19.94;54.09
64388;BME280;50709;52.648;4.764;2023-09-19T04:09:03;100665.19;;;19.76;54.35
64388;BME280;50709;52.648;4.764;2023-09-19T04:11:32;100692.84;;;19.93;54.90
64388;BME280;50709;52.648;4.764;2023-09-19T04:13:58;100691.97;;;19.69;52.42
64388;BME280;50709;52.648;4.764;2023-09-19T04:16:24;100694.31;;;19.76;53.31
64388;BME280;50709;52.648;4.764;2023-09-19T04:18:49;100700.16;;;19.62;53.01
64388;BME280;50709;52.648;4.764;2023-09-19T04:21:15;100696.28;;;19.71;54.11
64388;BME280;50709;52.648;4.764;2023-09-19T04:23:41;100692.84;;;19.93;54.78
64388;BME280;50709;52.648;4.764;2023-09-19T04:26:06;100690.41;;;19.87;53.46
64388;BME280;50709;52.648;4.764;2023-09-19T04:28:32;100686.16;;;19.82;54.47
64388;BME280;50709;52.648;4.764;2023-09-19T04:30:59;100667.50;;;20.08;54.69
64388;BME280;50709;52.648;4.764;2023-09-19T04:33:25;100688.16;;;19.99;53.83
64388;BME280;50709;52.648;4.764;2023-09-19T04:35:52;100679.03;;;19.85;52.25
64388;BME280;50709;52.648;4.764;2023-09-19T04:38:21;100682.03;;;19.97;53.90
64388;BME280;50709;52.648;4.764;2023-09-19T04:40:47;100689.88;;;20.00;54.30
64388;BME280;50709;52.648;4.764;2023-09-19T04:43:12;100684.09;;;19.91;53.58
64388;BME280;50709;52.648;4.764;2023-09-19T04:45:39;100662.03;;;19.66;55.33
64388;BME280;50709;52.648;4.764;2023-09-19T04:48:05;100678.97;;;19.86;54.31
64388;BME280;50709;52.648;4.764;2023-09-19T04:50:34;100683.28;;;19.89;54.14
64388;BME280;50709;52.648;4.764;2023-09-19T04:53:00;100694.31;;;19.76;55.30
64388;BME280;50709;52.648;4.764;2023-09-19T04:55:26;100691.84;;;19.95;55.26
64388;BME280;50709;52.648;4.764;2023-09-19T04:57:52;100677.16;;;19.87;53.95
64388;BME280;50709;52.648;4.764;2023-09-19T05:00:21;100678.31;;;19.79;54.00
64388;BME280;50709;52.648;4.764;2023-09-19T05:02:51;100682.16;;;19.94;53.76
64388;BME280;50709;52.648;4.764;2023-09-19T05:05:17;100679.75;;;19.64;54.72
64388;BME280;50709;52.648;4.764;2023-09-19T05:07:44;100691.00;;;19.95;54.22
64388;BME280;50709;52.648;4.764;2023-09-19T05:10:12;100688.78;;;19.84;54.76
64388;BME280;50709;52.648;4.764;2023-09-19T05:12:38;100692.22;;;19.86;54.88
64388;BME280;50709;52.648;4.764;2023-09-19T05:15:06;100688.91;;;19.79;54.54
64388;BME280;50709;52.648;4.764;2023-09-19T05:17:35;100685.56;;;19.98;53.92
64388;BME280;50709;52.648;4.764;2023-09-19T05:20:02;100683.84;;;19.97;53.74
64388;BME280;50709;52.648;4.764;2023-09-19T05:22:42;100691.78;;;19.97;53.30
64388;BME280;50709;52.648;4.764;2023-09-19T05:25:09;100691.91;;;19.94;51.77
64388;BME280;50709;52.648;4.764;2023-09-19T05:27:35;100705.94;;;19.96;53.09
64388;BME280;50709;52.648;4.764;2023-09-19T05:30:00;100699.81;;;19.95;54.45
64388;BME280;50709;52.648;4.764;2023-09-19T05:32:25;100709.41;;;19.98;53.03
64388;BME280;50709;52.648;4.764;2023-09-19T05:34:51;100694.63;;;19.92;53.80
64388;BME280;50709;52.648;4.764;2023-09-19T05:37:22;100697.44;;;19.88;54.25
64388;BME280;50709;52.648;4.764;2023-09-19T05:39:49;100701.34;;;20.01;53.31
64388;BME280;50709;52.648;4.764;2023-09-19T05:42:14;100698.72;;;19.77;53.19
64388;BME280;50709;52.648;4.764;2023-09-19T05:44:40;100691.44;;;20.06;53.65
64388;BME280;50709;52.648;4.764;2023-09-19T05:47:05;100690.31;;;19.90;53.01
64388;BME280;50709;52.648;4.764;2023-09-19T05:49:36;100707.06;;;19.90;54.37
64388;BME280;50709;52.648;4.764;2023-09-19T05:52:05;100708.19;;;20.07;53.76
64388;BME280;50709;52.648;4.764;2023-09-19T05:54:30;100720.03;;;19.98;53.86
64388;BME280;50709;52.648;4.764;2023-09-19T05:56:56;100691.06;;;20.15;54.42
64388;BME280;50709;52.648;4.764;2023-09-19T05:59:23;100696.34;;;19.93;53.83
64388;BME280;50709;52.648;4.764;2023-09-19T06:01:48;100695.13;;;19.78;53.37
64388;BME280;50709;52.648;4.764;2023-09-19T06:04:14;100700.19;;;20.08;54.12
64388;BME280;50709;52.648;4.764;2023-09-19T06:06:39;100692.25;;;20.08;54.38
64388;BME280;50709;52.648;4.764;2023-09-19T06:09:07;100698.31;;;20.10;55.82
64388;BME280;50709;52.648;4.764;2023-09-19T06:11:34;100687.97;;;20.26;54.27
64388;BME280;50709;52.648;4.764;2023-09-19T06:14:01;100684.88;;;19.93;55.42
64388;BME280;50709;52.648;4.764;2023-09-19T06:16:28;100696.22;;;20.19;54.91
64388;BME280;50709;52.648;4.764;2023-09-19T06:18:54;100695.31;;;20.20;54.40
64388;BME280;50709;52.648;4.764;2023-09-19T06:21:21;100698.13;;;20.37;53.77
64388;BME280;50709;52.648;4.764;2023-09-19T06:23:47;100705.50;;;20.08;54.34
64388;BME280;50709;52.648;4.764;2023-09-19T06:26:12;100701.22;;;20.04;54.03
64388;BME280;50709;52.648;4.764;2023-09-19T06:28:38;100694.75;;;20.11;54.14
64388;BME280;50709;52.648;4.764;2023-09-19T06:31:03;100692.34;;;20.27;53.71
64388;BME280;50709;52.648;4.764;2023-09-19T06:33:33;100694.00;;;20.08;53.29
64388;BME280;50709;52.648;4.764;2023-09-19T06:35:58;100690.13;;;19.94;53.68
64388;BME280;50709;52.648;4.764;2023-09-19T06:38:25;100687.84;;;20.07;53.59
64388;BME280;50709;52.648;4.764;2023-09-19T06:40:50;100702.72;;;20.11;54.76
64388;BME280;50709;52.648;4.764;2023-09-19T06:43:19;100702.00;;;20.28;54.25
64388;BME280;50709;52.648;4.764;2023-09-19T06:45:45;100695.44;;;20.16;53.66
64388;BME280;50709;52.648;4.764;2023-09-19T06:48:11;100701.97;;;20.08;52.76
64388;BME280;50709;52.648;4.764;2023-09-19T06:50:37;100700.19;;;20.30;53.35
64388;BME280;50709;52.648;4.764;2023-09-19T06:53:03;100719.34;;;20.37;52.88
64388;BME280;50709;52.648;4.764;2023-09-19T06:55:29;100734.22;;;20.41;53.75
64388;BME280;50709;52.648;4.764;2023-09-19T06:58:14;100716.78;;;20.36;53.68
64388;BME280;50709;52.648;4.764;2023-09-19T07:00:41;100725.44;;;20.39;53.54
64388;BME280;50709;52.648;4.764;2023-09-19T07:03:08;100706.34;;;20.31;52.63
64388;BME280;50709;52.648;4.764;2023-09-19T07:05:37;100729.94;;;20.59;52.58
64388;BME280;50709;52.648;4.764;2023-09-19T07:08:05;100729.75;;;20.64;53.85
64388;BME280;50709;52.648;4.764;2023-09-19T07:10:36;100728.53;;;20.50;53.47
64388;BME280;50709;52.648;4.764;2023-09-19T07:13:03;100735.50;;;20.53;53.00
64388;BME280;50709;52.648;4.764;2023-09-19T07:15:31;100733.06;;;20.26;52.08
64388;BME280;50709;52.648;4.764;2023-09-19T07:18:01;100729.91;;;20.39;53.92
64388;BME280;50709;52.648;4.764;2023-09-19T07:20:26;100729.09;;;20.59;53.28
64388;BME280;50709;52.648;4.764;2023-09-19T07:22:53;100738.78;;;20.60;53.22
64388;BME280;50709;52.648;4.764;2023-09-19T07:25:21;100732.84;;;20.53;53.37
64388;BME280;50709;52.648;4.764;2023-09-19T07:27:48;100717.69;;;20.12;52.08
64388;BME280;50709;52.648;4.764;2023-09-19T07:30:13;100725.22;;;20.45;52.68
64388;BME280;50709;52.648;4.764;2023-09-19T07:32:40;100742.47;;;20.56;53.07
64388;BME280;50709;52.648;4.764;2023-09-19T07:35:06;100740.47;;;20.61;53.16
64388;BME280;50709;52.648;4.764;2023-09-19T07:37:32;100742.84;;;20.46;51.97
64388;BME280;50709;52.648;4.764;2023-09-19T07:40:04;100738.25;;;20.50;52.73
64388;BME280;50709;52.648;4.764;2023-09-19T07:42:34;100734.47;;;20.57;52.60
64388;BME280;50709;52.648;4.764;2023-09-19T07:45:06;100742.53;;;20.54;52.46
64388;BME280;50709;52.648;4.764;2023-09-19T07:47:33;100726.88;;;20.70;52.11
64388;BME280;50709;52.648;4.764;2023-09-19T07:49:59;100729.44;;;20.72;52.46
64388;BME280;50709;52.648;4.764;2023-09-19T07:52:27;100724.34;;;20.88;52.15
64388;BME280;50709;52.648;4.764;2023-09-19T07:54:57;100729.88;;;20.83;51.55
64388;BME280;50709;52.648;4.764;2023-09-19T07:57:26;100721.44;;;20.73;52.30
64388;BME280;50709;52.648;4.764;2023-09-19T07:59:53;100710.28;;;20.65;52.92
64388;BME280;50709;52.648;4.764;2023-09-19T08:02:19;100712.16;;;20.83;52.58
64388;BME280;50709;52.648;4.764;2023-09-19T08:04:45;100701.81;;;20.98;52.43
64388;BME280;50709;52.648;4.764;2023-09-19T08:07:14;100715.22;;;20.95;51.94
64388;BME280;50709;52.648;4.764;2023-09-19T08:09:40;100714.88;;;21.03;50.99
64388;BME280;50709;52.648;4.764;2023-09-19T08:12:06;100701.56;;;21.04;51.12
64388;BME280;50709;52.648;4.764;2023-09-19T08:14:33;100714.09;;;21.00;51.39
64388;BME280;50709;52.648;4.764;2023-09-19T08:16:59;100695.09;;;21.10;52.73
64388;BME280;50709;52.648;4.764;2023-09-19T08:19:26;100705.16;;;21.22;51.12
64388;BME280;50709;52.648;4.764;2023-09-19T08:21:56;100693.16;;;21.13;51.89
64388;BME280;50709;52.648;4.764;2023-09-19T08:24:28;100693.09;;;21.15;51.23
64388;BME280;50709;52.648;4.764;2023-09-19T08:26:55;100698.06;;;21.23;51.62
64388;BME280;50709;52.648;4.764;2023-09-19T08:29:22;100706.53;;;21.31;52.10
64388;BME280;50709;52.648;4.764;2023-09-19T08:31:54;100703.78;;;21.13;51.91
64388;BME280;50709;52.648;4.764;2023-09-19T08:34:19;100691.41;;;21.33;51.59
64388;BME280;50709;52.648;4.764;2023-09-19T08:36:44;100695.75;;;21.15;51.29
64388;BME280;50709;52.648;4.764;2023-09-19T08:39:10;100689.44;;;21.17;52.61
64388;BME280;50709;52.648;4.764;2023-09-19T08:41:36;100690.84;;;21.45;51.79
64388;BME280;50709;52.648;4.764;2023-09-19T08:44:02;100682.59;;;21.32;50.88
64388;BME280;50709;52.648;4.764;2023-09-19T08:46:30;100698.22;;;21.39;50.62
64388;BME280;50709;52.648;4.764;2023-09-19T08:49:28;100695.72;;;21.36;50.74
64388;BME280;50709;52.648;4.764;2023-09-19T08:52:06;100661.25;;;21.15;51.48
64388;BME280;50709;52.648;4.764;2023-09-19T08:54:38;100699.66;;;21.46;51.80
64388;BME280;50709;52.648;4.764;2023-09-19T08:57:08;100689.69;;;21.51;51.32
64388;BME280;50709;52.648;4.764;2023-09-19T08:59:37;100690.69;;;21.48;52.70
64388;BME280;50709;52.648;4.764;2023-09-19T09:02:12;100678.53;;;21.82;51.59
64388;BME280;50709;52.648;4.764;2023-09-19T09:04:40;100688.59;;;21.95;50.70
64388;BME280;50709;52.648;4.764;2023-09-19T09:07:11;100688.59;;;21.95;50.51
64388;BME280;50709;52.648;4.764;2023-09-19T09:09:37;100694.19;;;21.89;51.23
64388;BME280;50709;52.648;4.764;2023-09-19T09:12:04;100689.00;;;22.05;50.55
64388;BME280;50709;52.648;4.764;2023-09-19T09:14:30;100697.59;;;21.73;51.28
64388;BME280;50709;52.648;4.764;2023-09-19T09:16:56;100700.97;;;22.13;50.74
64388;BME280;50709;52.648;4.764;2023-09-19T09:19:24;100697.69;;;21.70;51.10
64388;BME280;50709;52.648;4.764;2023-09-19T09:21:51;100683.69;;;21.86;51.92
64388;BME280;50709;52.648;4.764;2023-09-19T09:24:26;100695.06;;;21.89;51.77
64388;BME280;50709;52.648;4.764;2023-09-19T09:26:53;100686.41;;;22.03;51.75
64388;BME280;50709;52.648;4.764;2023-09-19T09:32:17;100663.84;;;21.93;51.62
64388;BME280;50709;52.648;4.764;2023-09-19T09:34:44;100661.94;;;21.77;52.64
64388;BME280;50709;52.648;4.764;2023-09-19T09:37:18;100658.22;;;21.62;52.52
64388;BME280;50709;52.648;4.764;2023-09-19T09:39:55;100661.38;;;21.71;53.46
64388;BME280;50709;52.648;4.764;2023-09-19T09:47:47;100650.47;;;21.94;54.26
64388;BME280;50709;52.648;4.764;2023-09-19T09:50:26;100652.34;;;21.56;55.08
64388;BME280;50709;52.648;4.764;2023-09-19T09:53:02;100662.06;;;21.55;55.95
64388;BME280;50709;52.648;4.764;2023-09-19T09:55:57;100647.19;;;21.51;55.45
64388;BME280;50709;52.648;4.764;2023-09-19T09:58:24;100647.78;;;21.58;56.67
64388;BME280;50709;52.648;4.764;2023-09-19T10:00:58;100658.16;;;21.64;58.10
64388;BME280;50709;52.648;4.764;2023-09-19T10:03:35;100663.47;;;21.24;58.49
64388;BME280;50709;52.648;4.764;2023-09-19T10:06:05;100657.75;;;20.94;60.35
64388;BME280;50709;52.648;4.764;2023-09-19T10:09:05;100642.44;;;21.20;60.63
64388;BME280;50709;52.648;4.764;2023-09-19T10:11:43;100633.13;;;21.30;58.53
64388;BME280;50709;52.648;4.764;2023-09-19T10:14:11;100636.69;;;21.10;60.14
64388;BME280;50709;52.648;4.764;2023-09-19T10:16:45;100622.00;;;21.41;59.24
64388;BME280;50709;52.648;4.764;2023-09-19T10:19:16;100628.16;;;21.22;59.53
64388;BME280;50709;52.648;4.764;2023-09-19T10:21:47;100623.78;;;21.40;59.12
64388;BME280;50709;52.648;4.764;2023-09-19T10:24:13;100609.94;;;21.72;58.35
64388;BME280;50709;52.648;4.764;2023-09-19T10:26:41;100610.31;;;21.64;58.53
64388;BME280;50709;52.648;4.764;2023-09-19T10:29:08;100616.06;;;21.55;58.05
64388;BME280;50709;52.648;4.764;2023-09-19T10:31:37;100621.13;;;21.40;59.13
64388;BME280;50709;52.648;4.764;2023-09-19T10:34:06;100605.19;;;21.40;59.33
64388;BME280;50709;52.648;4.764;2023-09-19T10:36:36;100598.22;;;21.76;57.33
64388;BME280;50709;52.648;4.764;2023-09-19T10:39:03;100594.03;;;21.51;58.00
64388;BME280;50709;52.648;4.764;2023-09-19T10:41:34;100603.91;;;21.49;57.90
64388;BME280;50709;52.648;4.764;2023-09-19T10:44:03;100615.91;;;21.58;59.15
64388;BME280;50709;52.648;4.764;2023-09-19T10:46:32;100605.19;;;21.59;59.95
64388;BME280;50709;52.648;4.764;2023-09-19T10:49:04;100607.19;;;21.35;61.20
64388;BME280;50709;52.648;4.764;2023-09-19T10:51:31;100614.78;;;21.05;61.79
64388;BME280;50709;52.648;4.764;2023-09-19T10:54:12;100618.09;;;21.10;62.95
64388;BME280;50709;52.648;4.764;2023-09-19T10:56:49;100622.91;;;21.21;62.34
64388;BME280;50709;52.648;4.764;2023-09-19T10:59:18;100631.72;;;21.02;63.27
64388;BME280;50709;52.648;4.764;2023-09-19T11:01:53;100610.41;;;21.04;63.01
64388;BME280;50709;52.648;4.764;2023-09-19T11:04:39;100607.22;;;20.95;63.88
64388;BME280;50709;52.648;4.764;2023-09-19T11:07:08;100587.81;;;20.54;64.78
64388;BME280;50709;52.648;4.764;2023-09-19T11:12:12;100597.53;;;20.94;64.37
64388;BME280;50709;52.648;4.764;2023-09-19T11:14:39;100594.88;;;20.94;63.30
64388;BME280;50709;52.648;4.764;2023-09-19T11:20:16;100613.06;;;21.42;62.73
64388;BME280;50709;52.648;4.764;2023-09-19T11:30:38;100551.19;;;21.40;61.03
64388;BME280;50709;52.648;4.764;2023-09-19T11:46:26;100580.63;;;20.97;64.52
64388;BME280;50709;52.648;4.764;2023-09-19T11:48:53;100567.00;;;21.05;64.01
64388;BME280;50709;52.648;4.764;2023-09-19T11:51:20;100580.03;;;21.09;63.78
64388;BME280;50709;52.648;4.764;2023-09-19T11:53:53;100570.41;;;20.67;65.10
64388;BME280;50709;52.648;4.764;2023-09-19T11:56:21;100587.00;;;21.12;63.59
64388;BME280;50709;52.648;4.764;2023-09-19T11:58:52;100584.94;;;21.18;64.24
64388;BME280;50709;52.648;4.764;2023-09-19T12:04:44;100583.66;;;21.46;64.03
64388;BME280;50709;52.648;4.764;2023-09-19T12:07:14;100544.19;;;21.20;64.37
64388;BME280;50709;52.648;4.764;2023-09-19T12:09:47;100582.59;;;21.31;64.47
64388;BME280;50709;52.648;4.764;2023-09-19T12:12:19;100587.75;;;21.15;65.28
64388;BME280;50709;52.648;4.764;2023-09-19T12:14:49;100582.66;;;20.71;66.76
64388;BME280;50709;52.648;4.764;2023-09-19T12:17:16;100577.28;;;21.31;64.72
64388;BME280;50709;52.648;4.764;2023-09-19T12:19:50;100567.34;;;21.35;65.35
64388;BME280;50709;52.648;4.764;2023-09-19T12:22:16;100567.06;;;21.22;64.67
64388;BME280;50709;52.648;4.764;2023-09-19T12:24:43;100575.53;;;21.11;66.13
64388;BME280;50709;52.648;4.764;2023-09-19T12:27:09;100568.72;;;21.63;64.36
64388;BME280;50709;52.648;4.764;2023-09-19T12:32:08;100548.88;;;21.70;63.42
64388;BME280;50709;52.648;4.764;2023-09-19T12:34:34;100540.75;;;21.56;63.89
64388;BME280;50709;52.648;4.764;2023-09-19T12:39:41;100559.22;;;21.76;64.00
64388;BME280;50709;52.648;4.764;2023-09-19T12:42:09;100555.91;;;21.71;63.77
64388;BME280;50709;52.648;4.764;2023-09-19T12:44:43;100540.22;;;21.66;64.53
64388;BME280;50709;52.648;4.764;2023-09-19T12:47:15;100524.13;;;21.50;64.21
64388;BME280;50709;52.648;4.764;2023-09-19T12:52:41;100553.81;;;21.78;63.48
64388;BME280;50709;52.648;4.764;2023-09-19T12:55:07;100540.69;;;21.75;63.24
64388;BME280;50709;52.648;4.764;2023-09-19T12:57:34;100555.78;;;22.09;62.02
64388;BME280;50709;52.648;4.764;2023-09-19T13:00:02;100545.91;;;21.59;63.83
64388;BME280;50709;52.648;4.764;2023-09-19T13:02:27;100533.88;;;21.69;62.80
64388;BME280;50709;52.648;4.764;2023-09-19T13:04:54;100549.38;;;21.78;62.11
64388;BME280;50709;52.648;4.764;2023-09-19T13:07:40;100551.56;;;22.05;62.22
64388;BME280;50709;52.648;4.764;2023-09-19T13:10:08;100547.50;;;21.80;62.20
64388;BME280;50709;52.648;4.764;2023-09-19T13:12:35;100546.31;;;21.86;62.35
64388;BME280;50709;52.648;4.764;2023-09-19T13:15:09;100556.88;;;21.88;62.24
64388;BME280;50709;52.648;4.764;2023-09-19T13:17:48;100560.16;;;21.75;62.73
64388;BME280;50709;52.648;4.764;2023-09-19T13:20:26;100561.81;;;21.95;61.79
64388;BME280;50709;52.648;4.764;2023-09-19T13:22:57;100539.59;;;21.79;62.56
64388;BME280;50709;52.648;4.764;2023-09-19T13:25:33;100537.03;;;21.77;62.26
64388;BME280;50709;52.648;4.764;2023-09-19T13:28:00;100528.06;;;21.97;61.58
64388;BME280;50709;52.648;4.764;2023-09-19T13:30:29;100535.69;;;21.86;62.14
64388;BME280;50709;52.648;4.764;2023-09-19T13:33:09;100511.28;;;21.78;61.81
64388;BME280;50709;52.648;4.764;2023-09-19T13:35:36;100525.53;;;21.94;61.37
64388;BME280;50709;52.648;4.764;2023-09-19T13:38:04;100534.38;;;21.77;62.40
64388;BME280;50709;52.648;4.764;2023-09-19T13:40:29;100545.03;;;21.95;61.65
64388;BME280;50709;52.648;4.764;2023-09-19T13:43:00;100540.78;;;21.91;61.58
64388;BME280;50709;52.648;4.764;2023-09-19T13:45:25;100538.44;;;22.02;61.79
64388;BME280;50709;52.648;4.764;2023-09-19T13:47:52;100541.94;;;22.20;60.93
64388;BME280;50709;52.648;4.764;2023-09-19T13:50:17;100541.66;;;22.09;61.05
64388;BME280;50709;52.648;4.764;2023-09-19T13:52:49;100527.63;;;21.88;61.28
64388;BME280;50709;52.648;4.764;2023-09-19T13:55:16;100540.47;;;21.97;60.94
64388;BME280;50709;52.648;4.764;2023-09-19T13:57:45;100533.13;;;21.84;61.19
64388;BME280;50709;52.648;4.764;2023-09-19T14:00:11;100553.31;;;22.06;61.11